createdAt,value
2018-06-11T00:00:15.351Z,8.27
2018-06-11T00:02:49.568Z,7.95
2018-06-11T00:05:18.668Z,8.10
2018-06-11T00:07:47.764Z,10.30
2018-06-11T00:10:17.476Z,8.20
2018-06-11T00:12:46.617Z,9.33
2018-06-11T00:15:16.698Z,9.33
2018-06-11T00:17:45.802Z,7.47
2018-06-11T00:20:14.940Z,14.53
2018-06-11T00:22:44.850Z,8.95
2018-06-11T00:25:14.988Z,8.30
2018-06-11T00:27:44.948Z,9.43
2018-06-11T00:30:14.883Z,8.48
2018-06-11T00:32:44.954Z,9.30
2018-06-11T00:35:14.941Z,8.67
2018-06-11T00:37:45.005Z,8.83
2018-06-11T00:40:14.956Z,10.77
2018-06-11T00:42:44.953Z,9.00
2018-06-11T00:45:15.684Z,8.63
2018-06-11T00:47:44.904Z,8.47
2018-06-11T00:50:14.974Z,8.85
2018-06-11T00:52:44.973Z,10.47
2018-06-11T00:55:18.882Z,11.13
2018-06-11T00:57:48.006Z,11.87
2018-06-11T01:00:17.157Z,9.13
2018-06-11T01:02:47.164Z,9.93
2018-06-11T01:05:21.277Z,11.47
2018-06-11T01:07:50.420Z,11.28
2018-06-11T01:10:19.470Z,12.47
2018-06-11T01:12:48.642Z,11.20
2018-06-11T01:15:17.858Z,12.40
2018-06-11T01:17:46.992Z,10.60
2018-06-11T01:20:19.510Z,12.30
2018-06-11T01:22:48.632Z,10.80
2018-06-11T01:25:17.740Z,10.40
2018-06-11T01:27:46.812Z,11.40
2018-06-11T01:30:16.032Z,10.70
2018-06-11T01:32:45.224Z,9.20
2018-06-11T01:35:15.283Z,11.45
2018-06-11T01:37:46.306Z,9.00
2018-06-11T01:40:15.491Z,11.13
2018-06-11T01:42:45.530Z,10.75
2018-06-11T01:45:15.361Z,8.50
2018-06-11T01:47:45.383Z,8.10
2018-06-11T01:50:15.349Z,9.35
2018-06-11T01:52:45.409Z,11.10
2018-06-11T01:55:15.461Z,11.18
2018-06-11T01:57:45.512Z,10.78
2018-06-11T02:00:15.489Z,9.80
2018-06-11T02:02:45.540Z,12.80
2018-06-11T02:05:15.509Z,11.70
2018-06-11T02:07:47.164Z,10.32
2018-06-11T02:10:19.842Z,11.47
2018-06-11T02:12:49.001Z,11.00
2018-06-11T02:15:18.158Z,13.77
2018-06-11T02:17:47.279Z,12.60
2018-06-11T02:20:16.431Z,13.57
2018-06-11T02:22:45.585Z,12.40
2018-06-11T02:25:15.751Z,11.20
2018-06-11T02:27:45.615Z,12.80
2018-06-11T02:30:15.618Z,12.97
2018-06-11T02:32:45.737Z,12.18
2018-06-11T02:35:15.711Z,11.13
2018-06-11T02:37:45.650Z,12.45
2018-06-11T02:40:15.695Z,12.83
2018-06-11T02:42:45.567Z,11.27
2018-06-11T02:45:14.677Z,13.33
2018-06-11T02:47:43.779Z,13.87
2018-06-11T02:50:12.832Z,11.87
2018-06-11T02:52:41.928Z,11.77
2018-06-11T02:55:11.699Z,11.87
2018-06-11T02:57:46.956Z,15.10
2018-06-11T03:00:16.074Z,15.00
2018-06-11T03:02:45.835Z,16.57
2018-06-11T03:05:15.804Z,12.07
2018-06-11T03:07:45.919Z,12.93
2018-06-11T03:10:15.866Z,11.47
2018-06-11T03:12:46.042Z,12.00
2018-06-11T03:15:16.000Z,12.55
2018-06-11T03:17:46.045Z,14.85
2018-06-11T03:20:16.001Z,16.50
2018-06-11T03:22:46.199Z,14.00
2018-06-11T03:25:19.473Z,18.52
2018-06-11T03:27:48.644Z,12.80
2018-06-11T03:30:24.542Z,12.90
2018-06-11T03:32:53.807Z,12.90
2018-06-11T03:35:22.948Z,13.80
2018-06-11T03:37:52.127Z,12.78
2018-06-11T03:40:21.285Z,19.90
2018-06-11T03:42:50.405Z,16.47
2018-06-11T03:45:19.529Z,17.13
2018-06-11T03:47:48.697Z,17.43
2018-06-11T03:50:17.933Z,15.17
2018-06-11T03:52:47.091Z,15.53
2018-06-11T03:55:19.343Z,13.87
2018-06-11T03:57:48.611Z,16.37
2018-06-11T04:00:17.679Z,14.40
2018-06-11T04:02:46.818Z,14.37
2018-06-11T04:05:16.911Z,21.30
2018-06-11T04:07:46.311Z,18.60
2018-06-11T04:10:16.397Z,18.50
2018-06-11T04:12:46.371Z,17.97
2018-06-11T04:15:16.349Z,18.50
2018-06-11T04:17:46.265Z,14.63
2018-06-11T04:20:16.882Z,16.62
2018-06-11T04:22:46.444Z,18.77
2018-06-11T04:25:16.295Z,17.80
2018-06-11T04:27:46.503Z,16.23
2018-06-11T04:30:16.343Z,14.53
2018-06-11T04:32:46.435Z,16.45
2018-06-11T04:35:16.427Z,15.23
2018-06-11T04:37:46.437Z,15.60
2018-06-11T04:40:16.524Z,16.50
2018-06-11T04:42:46.517Z,15.70
2018-06-11T04:45:16.490Z,17.13
2018-06-11T04:47:46.504Z,24.07
2018-06-11T04:50:17.237Z,14.58
2018-06-11T04:52:46.489Z,17.73
2018-06-11T04:55:16.594Z,30.50
2018-06-11T04:57:46.599Z,20.97
2018-06-11T05:00:16.594Z,23.95
2018-06-11T05:02:46.616Z,20.05
2018-06-11T05:05:16.615Z,14.30
2018-06-11T05:07:46.602Z,17.30
2018-06-11T05:10:22.605Z,16.10
2018-06-11T05:12:51.700Z,14.03
2018-06-11T05:15:21.905Z,16.10
2018-06-11T05:17:51.046Z,15.70
2018-06-11T05:20:20.194Z,18.90
2018-06-11T05:22:49.326Z,15.83
2018-06-11T05:25:19.619Z,17.97
2018-06-11T05:27:48.843Z,21.27
2018-06-11T05:32:51.712Z,15.20
2018-06-11T05:35:20.879Z,21.27
2018-06-11T05:37:50.128Z,19.50
2018-06-11T05:40:19.378Z,15.80
2018-06-11T05:42:48.519Z,14.83
2018-06-11T05:45:17.708Z,22.87
2018-06-11T05:47:46.869Z,18.20
2018-06-11T05:50:16.912Z,16.93
2018-06-11T05:52:46.943Z,14.20
2018-06-11T05:55:18.658Z,19.55
2018-06-11T05:57:47.913Z,17.50
2018-06-11T06:00:18.044Z,21.90
2018-06-11T06:02:47.236Z,19.37
2018-06-11T06:05:17.124Z,14.87
2018-06-11T06:07:47.048Z,17.17
2018-06-11T06:10:17.093Z,15.53
2018-06-11T06:12:47.052Z,22.10
2018-06-11T06:15:17.089Z,18.80
2018-06-11T06:17:47.171Z,23.10
2018-06-11T06:20:22.768Z,21.80
2018-06-11T06:22:52.228Z,21.15
2018-06-11T06:25:35.403Z,23.32
2018-06-11T06:28:04.684Z,24.02
2018-06-11T06:30:36.992Z,25.30
2018-06-11T06:33:06.248Z,23.90
2018-06-11T06:35:35.834Z,21.70
2018-06-11T06:38:04.942Z,20.40
2018-06-11T06:40:34.073Z,18.00
2018-06-11T06:43:03.267Z,18.00
2018-06-11T06:45:32.410Z,18.92
2018-06-11T06:48:01.503Z,14.83
2018-06-11T06:50:30.616Z,14.47
2018-06-11T06:52:59.832Z,15.60
2018-06-11T06:55:29.013Z,14.83
2018-06-11T06:57:58.068Z,12.80
2018-06-11T07:00:27.171Z,11.70
2018-06-11T07:02:56.393Z,12.30
2018-06-11T07:05:25.482Z,14.23
2018-06-11T07:07:54.573Z,10.32
2018-06-11T07:10:23.834Z,15.18
2018-06-11T07:12:52.972Z,14.98
2018-06-11T07:15:22.063Z,12.33
2018-06-11T07:17:51.221Z,16.83
2018-06-11T07:20:20.411Z,10.70
2018-06-11T07:22:49.586Z,10.70
2018-06-11T07:25:22.844Z,13.90
2018-06-11T07:27:52.075Z,13.00
2018-06-11T07:30:21.225Z,19.57
2018-06-11T07:32:51.899Z,13.00
2018-06-11T07:35:20.984Z,10.53
2018-06-11T07:37:50.213Z,12.40
2018-06-11T07:40:19.345Z,9.87
2018-06-11T07:42:48.523Z,12.50
2018-06-11T07:45:17.710Z,10.93
2018-06-11T07:47:47.833Z,11.70
2018-06-11T07:50:17.685Z,9.23
2018-06-11T07:52:47.952Z,8.43
2018-06-11T07:55:17.789Z,9.07
2018-06-11T07:57:47.704Z,9.50
2018-06-11T08:00:17.736Z,12.10
2018-06-11T08:02:47.813Z,10.23
2018-06-11T08:05:18.308Z,15.32
2018-06-11T08:07:47.950Z,9.63
2018-06-11T08:10:17.841Z,7.73
2018-06-11T08:12:47.863Z,8.53
2018-06-11T08:15:19.593Z,9.13
2018-06-11T08:17:48.844Z,10.90
2018-06-11T08:20:17.967Z,9.13
2018-06-11T08:22:47.918Z,7.05
2018-06-11T08:25:18.114Z,7.97
2018-06-11T08:27:47.985Z,8.07
2018-06-11T08:30:21.849Z,7.80
2018-06-11T08:32:50.971Z,7.73
2018-06-11T08:35:20.140Z,7.33
2018-06-11T08:37:49.303Z,7.47
2018-06-11T08:40:18.474Z,6.80
2018-06-11T08:42:48.466Z,7.45
2018-06-11T08:45:18.189Z,7.12
2018-06-11T08:47:48.131Z,7.97
2018-06-11T08:50:18.161Z,9.70
2018-06-11T08:52:48.254Z,11.83
2018-06-11T08:55:18.225Z,12.23
2018-06-11T08:57:48.293Z,11.60
2018-06-11T09:00:21.947Z,13.73
2018-06-11T09:02:51.086Z,10.50
2018-06-11T09:05:20.219Z,8.10
2018-06-11T09:07:49.327Z,11.33
2018-06-11T09:10:18.488Z,8.63
2018-06-11T09:12:48.478Z,7.83
2018-06-11T09:15:18.276Z,7.37
2018-06-11T09:17:48.420Z,8.05
2018-06-11T09:20:18.350Z,7.53
2018-06-11T09:22:48.348Z,9.88
2018-06-11T09:25:18.417Z,11.90
2018-06-11T09:27:48.451Z,11.23
2018-06-11T09:30:21.649Z,10.17
2018-06-11T09:32:50.805Z,8.93
2018-06-11T09:35:19.977Z,10.17
2018-06-11T09:37:49.166Z,6.00
2018-06-11T09:40:19.408Z,5.80
2018-06-11T09:42:48.624Z,5.57
2018-06-11T09:45:18.458Z,5.07
2018-06-11T09:47:48.522Z,7.10
2018-06-11T09:50:18.559Z,7.47
2018-06-11T09:52:48.556Z,5.75
2018-06-11T09:55:18.524Z,5.73
2018-06-11T09:57:48.695Z,6.43
2018-06-11T10:00:23.722Z,6.65
2018-06-11T10:02:53.406Z,7.07
2018-06-11T10:05:29.105Z,10.70
2018-06-11T10:07:58.187Z,9.10
2018-06-11T10:10:27.373Z,9.00
2018-06-11T10:12:56.598Z,4.10
2018-06-11T10:15:25.696Z,9.90
2018-06-11T10:17:54.885Z,6.40
2018-06-11T10:20:24.076Z,7.95
2018-06-11T10:22:53.163Z,5.20
2018-06-11T10:25:22.368Z,6.97
2018-06-11T10:27:51.468Z,5.43
2018-06-11T10:30:20.551Z,5.37
2018-06-11T10:32:49.654Z,9.80
2018-06-11T10:35:18.922Z,7.23
2018-06-11T10:37:48.853Z,9.97
2018-06-11T10:40:18.868Z,8.73
2018-06-11T10:42:48.988Z,6.80
2018-06-11T10:45:19.096Z,6.97
2018-06-11T10:47:49.129Z,7.60
2018-06-11T10:50:26.169Z,9.57
2018-06-11T10:52:55.430Z,7.47
2018-06-11T10:55:24.523Z,6.37
2018-06-11T10:57:53.603Z,5.62
2018-06-11T11:00:23.967Z,11.57
2018-06-11T11:02:53.119Z,6.97
2018-06-11T11:05:22.327Z,9.53
2018-06-11T11:07:51.488Z,7.67
2018-06-11T11:10:20.610Z,8.70
2018-06-11T11:12:49.779Z,8.27
2018-06-11T11:15:19.294Z,12.73
2018-06-11T11:17:49.266Z,6.33
2018-06-11T11:20:19.245Z,6.23
2018-06-11T11:22:49.326Z,6.87
2018-06-11T11:25:19.252Z,7.05
2018-06-11T11:27:49.380Z,8.85
2018-06-11T11:30:19.280Z,5.23
2018-06-11T11:32:49.308Z,7.13
2018-06-11T11:35:19.418Z,7.90
2018-06-11T11:37:49.524Z,4.90
2018-06-11T11:40:19.444Z,9.37
2018-06-11T11:42:49.530Z,7.37
2018-06-11T11:45:19.526Z,12.63
2018-06-11T11:47:49.542Z,9.50
2018-06-11T11:50:19.429Z,9.50
2018-06-11T11:52:49.549Z,6.58
2018-06-11T11:55:19.550Z,10.63
2018-06-11T11:57:49.496Z,7.83
2018-06-11T12:00:23.133Z,10.68
2018-06-11T12:02:52.341Z,8.63
2018-06-11T12:05:21.478Z,12.90
2018-06-11T12:07:50.596Z,12.50
2018-06-11T12:10:19.774Z,8.43
2018-06-11T12:12:49.636Z,11.30
2018-06-11T12:15:21.184Z,11.87
2018-06-11T12:17:50.280Z,15.87
2018-06-11T12:20:23.080Z,8.48
2018-06-11T12:22:52.162Z,11.53
2018-06-11T12:25:21.467Z,10.30
2018-06-11T12:27:50.715Z,9.30
2018-06-11T12:30:19.972Z,10.30
2018-06-11T12:32:50.076Z,13.98
2018-06-11T12:35:19.848Z,14.70
2018-06-11T12:37:50.032Z,8.20
2018-06-11T12:40:20.045Z,13.00
2018-06-11T12:42:49.980Z,11.68
2018-06-11T12:45:20.153Z,11.70
2018-06-11T12:47:50.119Z,9.73
2018-06-11T12:50:20.115Z,13.03
2018-06-11T12:52:50.174Z,14.57
2018-06-11T12:55:20.160Z,8.13
2018-06-11T12:57:50.147Z,29.63
2018-06-11T13:00:20.202Z,11.60
2018-06-11T13:02:50.176Z,10.03
2018-06-11T13:05:21.623Z,20.63
2018-06-11T13:07:50.729Z,15.00
2018-06-11T13:10:20.230Z,11.43
2018-06-11T13:12:50.398Z,11.12
2018-06-11T13:15:20.241Z,9.23
2018-06-11T13:17:53.532Z,9.95
2018-06-11T13:20:22.701Z,12.90
2018-06-11T13:22:51.960Z,13.10
2018-06-11T13:25:21.092Z,10.63
2018-06-11T13:27:50.718Z,14.10
2018-06-11T13:30:20.528Z,13.30
2018-06-11T13:32:50.565Z,8.33
2018-06-11T13:35:20.611Z,12.88
2018-06-11T13:37:50.637Z,14.67
2018-06-11T13:40:20.655Z,9.07
2018-06-11T13:42:50.605Z,11.23
2018-06-11T13:45:20.643Z,13.67
2018-06-11T13:47:50.872Z,10.65
2018-06-11T13:50:21.043Z,7.23
2018-06-11T13:52:50.790Z,19.97
2018-06-11T13:55:21.345Z,10.10
2018-06-11T13:57:50.944Z,9.23
2018-06-11T14:02:54.644Z,10.37
2018-06-11T14:05:23.797Z,11.77
2018-06-11T14:07:52.986Z,13.07
2018-06-11T14:10:22.090Z,11.37
2018-06-11T14:12:51.228Z,15.53
2018-06-11T14:15:20.961Z,9.90
2018-06-11T14:17:51.854Z,16.20
2018-06-11T14:20:22.498Z,13.07
2018-06-11T14:22:52.221Z,13.50
2018-06-11T14:25:21.395Z,9.67
2018-06-11T14:27:50.573Z,7.10
2018-06-11T14:30:19.766Z,11.40
2018-06-11T14:32:48.936Z,11.70
2018-06-11T14:35:18.139Z,12.13
2018-06-11T14:37:47.308Z,16.13
2018-06-11T14:40:16.959Z,11.30
2018-06-11T14:42:46.445Z,7.60
2018-06-11T14:45:15.613Z,12.93
2018-06-11T14:47:44.736Z,8.80
2018-06-11T14:50:13.857Z,9.23
2018-06-11T14:52:43.659Z,13.33
2018-06-11T14:55:12.865Z,13.73
2018-06-11T14:57:45.313Z,10.57
2018-06-11T15:00:16.346Z,15.40
2018-06-11T15:02:45.416Z,13.57
2018-06-11T15:05:14.532Z,14.23
2018-06-11T15:07:43.661Z,9.30
2018-06-11T15:10:13.020Z,8.80
2018-06-11T15:12:42.382Z,9.30
2018-06-11T15:15:11.514Z,8.83
2018-06-11T15:17:46.081Z,12.47
2018-06-11T15:20:15.213Z,14.47
2018-06-11T15:22:45.114Z,11.03
2018-06-11T15:25:14.306Z,14.13
2018-06-11T15:27:43.608Z,11.30
2018-06-11T15:30:12.717Z,15.43
2018-06-11T15:32:43.324Z,8.03
2018-06-11T15:35:12.406Z,9.57
2018-06-11T15:37:41.493Z,9.43
2018-06-11T15:40:10.744Z,7.47
2018-06-11T15:42:39.905Z,10.60
2018-06-11T15:45:09.615Z,14.13
2018-06-11T15:47:38.899Z,17.65
2018-06-11T15:50:08.114Z,12.75
2018-06-11T15:52:37.504Z,7.92
2018-06-11T15:55:06.689Z,11.30
2018-06-11T15:57:35.812Z,8.63
2018-06-11T16:00:05.100Z,13.57
2018-06-11T16:02:37.517Z,10.85
2018-06-11T16:05:08.658Z,10.20
2018-06-11T16:07:37.816Z,12.53
2018-06-11T16:10:07.000Z,13.97
2018-06-11T16:12:36.131Z,13.37
2018-06-11T16:15:05.314Z,9.70
2018-06-11T16:17:34.412Z,11.63
2018-06-11T16:20:03.615Z,9.65
2018-06-11T16:22:32.719Z,13.17
2018-06-11T16:25:01.878Z,17.47
2018-06-11T16:27:30.963Z,9.70
2018-06-11T16:30:00.073Z,12.50
2018-06-11T16:32:29.278Z,9.13
2018-06-11T16:34:58.437Z,15.53
2018-06-11T16:37:27.591Z,7.77
2018-06-11T16:39:56.761Z,11.97
2018-06-11T16:42:25.928Z,8.03
2018-06-11T16:44:55.129Z,13.10
2018-06-11T16:47:28.273Z,10.03
2018-06-11T16:49:57.470Z,11.33
2018-06-11T16:52:27.706Z,17.63
2018-06-11T16:54:56.851Z,15.00
2018-06-11T16:57:25.946Z,15.13
2018-06-11T16:59:55.830Z,11.40
2018-06-11T17:02:24.988Z,12.47
2018-06-11T17:04:54.147Z,11.40
2018-06-11T17:07:23.356Z,7.77
2018-06-11T17:09:52.981Z,12.43
2018-06-11T17:12:22.923Z,13.13
2018-06-11T17:14:53.008Z,9.63
2018-06-11T17:17:24.898Z,20.12
2018-06-11T17:19:54.090Z,11.83
2018-06-11T17:22:24.143Z,20.43
2018-06-11T17:24:53.294Z,16.57
2018-06-11T17:27:26.391Z,16.87
2018-06-11T17:29:55.521Z,14.30
2018-06-11T17:32:24.669Z,10.93
2018-06-11T17:34:53.826Z,17.53
2018-06-11T17:37:23.425Z,15.97
2018-06-11T17:39:53.388Z,11.40
2018-06-11T17:42:23.428Z,10.70
2018-06-11T17:44:54.296Z,10.87
2018-06-11T17:47:24.409Z,13.90
2018-06-11T17:49:53.610Z,22.10
2018-06-11T17:52:23.448Z,18.40
2018-06-11T17:54:53.519Z,15.83
2018-06-11T17:57:23.471Z,14.40
2018-06-11T17:59:53.527Z,11.33
2018-06-11T18:02:23.668Z,8.48
2018-06-11T18:04:54.601Z,9.87
2018-06-11T18:07:23.816Z,8.53
2018-06-11T18:09:53.730Z,10.17
2018-06-11T18:12:23.805Z,15.37
2018-06-11T18:14:53.752Z,10.03
2018-06-11T18:17:25.602Z,10.85
2018-06-11T18:19:54.921Z,8.23
2018-06-11T18:22:27.546Z,12.40
2018-06-11T18:24:56.752Z,9.80
2018-06-11T18:27:26.197Z,8.50
2018-06-11T18:29:57.012Z,7.80
2018-06-11T18:32:26.224Z,6.70
2018-06-11T18:34:58.251Z,13.67
2018-06-11T18:37:27.429Z,10.10
2018-06-11T18:39:56.719Z,11.37
2018-06-11T18:42:26.078Z,9.43
2018-06-11T18:44:55.527Z,9.70
2018-06-11T18:47:24.929Z,9.83
2018-06-11T18:49:54.177Z,9.73
2018-06-11T18:52:24.170Z,7.60
2018-06-11T18:54:57.646Z,7.83
2018-06-11T18:57:26.999Z,9.80
2018-06-11T18:59:56.390Z,5.60
2018-06-11T19:02:25.619Z,8.47
2018-06-11T19:04:54.762Z,11.43
2018-06-11T19:07:24.478Z,8.70
2018-06-11T19:09:54.722Z,13.53
2018-06-11T19:12:24.561Z,8.23
2018-06-11T19:14:54.717Z,11.30
2018-06-11T19:17:24.376Z,7.67
2018-06-11T19:19:58.348Z,8.10
2018-06-11T19:22:27.577Z,8.50
2018-06-11T19:24:56.815Z,8.27
2018-06-11T19:27:25.989Z,12.37
2018-06-11T19:29:55.165Z,10.77
2018-06-11T19:32:25.077Z,8.53
2018-06-11T19:34:55.117Z,10.58
2018-06-11T19:37:25.684Z,8.53
2018-06-11T19:39:55.412Z,13.30
2018-06-11T19:42:24.755Z,11.87
2018-06-11T19:44:53.903Z,9.37
2018-06-11T19:47:27.816Z,13.23
2018-06-11T19:49:57.308Z,6.83
2018-06-11T19:52:26.593Z,14.93
2018-06-11T19:55:03.311Z,12.93
2018-06-11T19:57:37.968Z,8.70
2018-06-11T20:00:07.202Z,12.67
2018-06-11T20:02:36.452Z,9.07
2018-06-11T20:05:05.668Z,8.33
2018-06-11T20:07:34.793Z,6.00
2018-06-11T20:10:04.038Z,8.73
2018-06-11T20:12:33.816Z,9.63
2018-06-11T20:15:02.997Z,12.13
2018-06-11T20:17:32.147Z,5.35
2018-06-11T20:20:01.267Z,14.40
2018-06-11T20:22:30.537Z,6.35
2018-06-11T20:24:59.757Z,9.98
2018-06-11T20:27:29.099Z,7.97
2018-06-11T20:29:58.854Z,3.60
2018-06-11T20:32:28.479Z,5.50
2018-06-11T20:34:57.543Z,6.57
2018-06-11T20:37:26.734Z,6.83
2018-06-11T20:39:55.982Z,6.43
2018-06-11T20:42:25.226Z,5.27
2018-06-11T20:44:55.424Z,5.22
2018-06-11T20:47:25.337Z,3.37
2018-06-11T20:49:55.405Z,9.10
2018-06-11T20:52:25.403Z,6.17
2018-06-11T20:54:55.553Z,6.78
2018-06-11T20:57:25.440Z,4.92
2018-06-11T20:59:55.536Z,6.63
2018-06-11T21:02:27.347Z,5.37
2018-06-11T21:04:56.507Z,6.23
2018-06-11T21:07:25.618Z,9.70
2018-06-11T21:09:55.508Z,4.80
2018-06-11T21:12:25.529Z,5.63
2018-06-11T21:14:55.565Z,10.32
2018-06-11T21:17:25.715Z,7.25
2018-06-11T21:19:55.642Z,6.80
2018-06-11T21:22:25.804Z,5.78
2018-06-11T21:24:55.695Z,6.57
2018-06-11T21:27:25.883Z,7.20
2018-06-11T21:29:55.935Z,8.37
2018-06-11T21:32:25.893Z,6.15
2018-06-11T21:34:55.814Z,6.67
2018-06-11T21:37:26.026Z,8.03
2018-06-11T21:39:55.945Z,9.50
2018-06-11T21:42:25.859Z,7.93
2018-06-11T21:44:55.887Z,7.70
2018-06-11T21:47:25.909Z,10.60
2018-06-11T21:49:55.999Z,8.70
2018-06-11T21:52:26.049Z,6.78
2018-06-11T21:54:56.036Z,5.97
2018-06-11T21:57:26.058Z,6.10
2018-06-11T21:59:56.181Z,7.62
2018-06-11T22:02:26.056Z,6.47
2018-06-11T22:04:56.098Z,11.80
2018-06-11T22:07:25.192Z,6.67
2018-06-11T22:09:54.445Z,5.63
2018-06-11T22:12:23.602Z,8.83
2018-06-11T22:14:54.710Z,7.93
2018-06-11T22:17:23.873Z,8.97
2018-06-11T22:19:53.076Z,5.37
2018-06-11T22:22:22.220Z,7.53
2018-06-11T22:24:51.461Z,5.50
2018-06-11T22:27:20.600Z,5.80
2018-06-11T22:29:49.689Z,7.03
2018-06-11T22:32:18.810Z,6.47
2018-06-11T22:34:47.963Z,5.80
2018-06-11T22:37:17.004Z,5.57
2018-06-11T22:39:46.074Z,5.60
2018-06-11T22:42:15.192Z,8.70
2018-06-11T22:44:44.306Z,5.73
2018-06-11T22:47:16.305Z,7.95
2018-06-11T22:49:45.450Z,6.80
2018-06-11T22:52:15.342Z,5.50
2018-06-11T22:54:48.356Z,6.70
2018-06-11T22:57:17.486Z,4.17
2018-06-11T22:59:46.594Z,4.40
2018-06-11T23:02:16.974Z,5.15
2018-06-11T23:04:46.078Z,7.07
2018-06-11T23:07:15.250Z,5.93
2018-06-11T23:09:44.566Z,4.67
2018-06-11T23:12:14.942Z,6.20
2018-06-11T23:14:44.276Z,8.60
2018-06-11T23:17:13.500Z,5.20
2018-06-11T23:19:42.672Z,6.75
2018-06-11T23:24:49.504Z,6.30
2018-06-11T23:27:18.697Z,6.23
2018-06-11T23:29:47.868Z,4.17
2018-06-11T23:32:17.050Z,5.20
2018-06-11T23:34:46.214Z,5.33
2018-06-11T23:37:18.978Z,10.25
2018-06-11T23:39:48.241Z,4.17
2018-06-11T23:42:17.366Z,3.97
2018-06-11T23:44:59.083Z,11.10
2018-06-11T23:47:28.438Z,8.25
2018-06-11T23:49:58.570Z,5.60
2018-06-11T23:52:28.588Z,5.33
2018-06-11T23:54:58.492Z,4.53
2018-06-11T23:57:28.620Z,6.58
2018-06-11T23:59:58.584Z,5.47
